地図

経路データ

SID SEASON NUMBER BASIN SUBBASIN NAME ISO_TIME NATURE LAT LON WMO_WIND WMO_PRES WMO_AGENCY TRACK_TYPE DIST2LAND LANDFALL IFLAG USA_AGENCY USA_ATCF_ID USA_LAT USA_LON USA_RECORD USA_STATUS USA_WIND USA_PRES USA_SSHS USA_R34_NE USA_R34_SE USA_R34_SW USA_R34_NW USA_R50_NE USA_R50_SE USA_R50_SW USA_R50_NW USA_R64_NE USA_R64_SE USA_R64_SW USA_R64_NW USA_POCI USA_ROCI USA_RMW USA_EYE TOKYO_LAT TOKYO_LON TOKYO_GRADE TOKYO_WIND TOKYO_PRES TOKYO_R50_DIR TOKYO_R50_LONG TOKYO_R50_SHORT TOKYO_R30_DIR TOKYO_R30_LONG TOKYO_R30_SHORT TOKYO_LAND CMA_LAT CMA_LON CMA_CAT CMA_WIND CMA_PRES HKO_LAT HKO_LON HKO_CAT HKO_WIND HKO_PRES NEWDELHI_LAT NEWDELHI_LON NEWDELHI_GRADE NEWDELHI_WIND NEWDELHI_PRES NEWDELHI_CI NEWDELHI_DP NEWDELHI_POCI REUNION_LAT REUNION_LON REUNION_TYPE REUNION_WIND REUNION_PRES REUNION_TNUM REUNION_CI REUNION_RMW REUNION_R34_NE REUNION_R34_SE REUNION_R34_SW REUNION_R34_NW REUNION_R50_NE REUNION_R50_SE REUNION_R50_SW REUNION_R50_NW REUNION_R64_NE REUNION_R64_SE REUNION_R64_SW REUNION_R64_NW BOM_LAT BOM_LON BOM_TYPE BOM_WIND BOM_PRES BOM_TNUM BOM_CI BOM_RMW BOM_R34_NE BOM_R34_SE BOM_R34_SW BOM_R34_NW BOM_R50_NE BOM_R50_SE BOM_R50_SW BOM_R50_NW BOM_R64_NE BOM_R64_SE BOM_R64_SW BOM_R64_NW BOM_ROCI BOM_POCI BOM_EYE BOM_POS_METHOD BOM_PRES_METHOD NADI_LAT NADI_LON NADI_CAT NADI_WIND NADI_PRES WELLINGTON_LAT WELLINGTON_LON WELLINGTON_WIND WELLINGTON_PRES DS824_LAT DS824_LON DS824_STAGE DS824_WIND DS824_PRES TD9636_LAT TD9636_LON TD9636_STAGE TD9636_WIND TD9636_PRES TD9635_LAT TD9635_LON TD9635_WIND TD9635_PRES TD9635_ROCI NEUMANN_LAT NEUMANN_LON NEUMANN_CLASS NEUMANN_WIND NEUMANN_PRES MLC_LAT MLC_LON MLC_CLASS MLC_WIND MLC_PRES USA_GUST BOM_GUST BOM_GUST_PER REUNION_GUST REUNION_GUST_PER USA_SEAHGT USA_SEARAD_NE USA_SEARAD_SE USA_SEARAD_SW USA_SEARAD_NW STORM_SPEED STORM_DIR
1913355N05141 1913 62 WP MM NOT_NAMED 1913-12-21 10:00:00 NR 5.00000 140.700 main 790 786 __________O___ -1 5.00000 140.700 7 13 304
1913355N05141 1913 62 WP MM NOT_NAMED 1913-12-21 12:00:00 NR 5.24183 140.346 main 797 804 __________P___ -1 5.24183 140.346 7 13 304
1913355N05141 1913 62 WP MM NOT_NAMED 1913-12-21 15:00:00 NR 5.59499 139.821 main 826 826 __________P___ -1 5.59499 139.821 7 12 304
1913355N05141 1913 62 WP MM NOT_NAMED 1913-12-21 18:00:00 NR 5.92387 139.318 main 840 840 __________P___ -1 5.92387 139.318 7 12 303
1913355N05141 1913 62 WP MM NOT_NAMED 1913-12-21 21:00:00 NR 6.21423 138.847 main 848 848 __________P___ -1 6.21423 138.847 7 11 302
1913355N05141 1913 62 WP MM NOT_NAMED 1913-12-21 22:00:00 NR 6.30000 138.700 main 854 850 __________O___ -1 6.30000 138.700 7 10 299
1913355N05141 1913 62 WP MM NOT_NAMED 1913-12-22 00:00:00 NR 6.45337 138.421 main 863 856 __________P___ -1 6.45337 138.421 7 9 298
1913355N05141 1913 62 WP MM NOT_NAMED 1913-12-22 03:00:00 NR 6.64577 138.035 main 860 864 __________P___ -1 6.64577 138.035 7 8 295
1913355N05141 1913 62 WP MM NOT_NAMED 1913-12-22 06:00:00 NR 6.80689 137.673 main 872 869 __________P___ -1 6.80689 137.673 7 8 293
1913355N05141 1913 62 WP MM NOT_NAMED 1913-12-22 09:00:00 NR 6.95232 137.319 main 883 880 __________P___ -1 6.95232 137.319 7 8 292
1913355N05141 1913 62 WP MM NOT_NAMED 1913-12-22 10:00:00 NR 7.00000 137.200 main 880 878 __________O___ -1 7.00000 137.200 7 8 292
1913355N05141 1913 62 WP MM NOT_NAMED 1913-12-22 12:00:00 NR 7.10038 136.953 main 887 884 __________P___ -1 7.10038 136.953 7 8 292
1913355N05141 1913 62 WP MM NOT_NAMED 1913-12-22 15:00:00 NR 7.24458 136.581 main 892 899 __________P___ -1 7.24458 136.581 7 8 291
1913355N05141 1913 62 WP MM NOT_NAMED 1913-12-22 18:00:00 NR 7.38948 136.208 main 910 909 __________P___ -1 7.38948 136.208 7 8 292
1913355N05141 1913 62 WP MM NOT_NAMED 1913-12-22 21:00:00 NR 7.54447 135.828 main 919 930 __________P___ -1 7.54447 135.828 7 8 293
1913355N05141 1913 62 WP MM NOT_NAMED 1913-12-22 22:00:00 NR 7.60000 135.700 main 930 930 __________O___ -1 7.60000 135.700 7 9 295
1913355N05141 1913 62 WP MM NOT_NAMED 1913-12-23 00:00:00 NR 7.72450 135.436 main 941 923 __________P___ -1 7.72450 135.436 7 9 296
1913355N05141 1913 62 WP MM NOT_NAMED 1913-12-23 03:00:00 NR 7.92395 135.035 main 923 883 __________P___ -1 7.92395 135.035 7 9 297
1913355N05141 1913 62 WP MM NOT_NAMED 1913-12-23 06:00:00 NR 8.13031 134.631 main 883 840 __________P___ -1 8.13031 134.631 7 9 297
1913355N05141 1913 62 WP MM NOT_NAMED 1913-12-23 09:00:00 NR 8.33420 134.231 main 840 830 __________P___ -1 8.33420 134.231 7 9 297
1913355N05141 1913 62 WP MM NOT_NAMED 1913-12-23 10:00:00 NR 8.40000 134.100 main 830 809 __________O___ -1 8.40000 134.100 7 8 296
1913355N05141 1913 62 WP MM NOT_NAMED 1913-12-23 12:00:00 NR 8.51168 133.857 main 809 768 __________P___ -1 8.51168 133.857 7 8 295
1913355N05141 1913 62 WP MM NOT_NAMED 1913-12-23 15:00:00 NR 8.67276 133.500 main 768 726 __________P___ -1 8.67276 133.500 7 8 295
1913355N05141 1913 62 WP MM NOT_NAMED 1913-12-23 18:00:00 NR 8.84009 133.134 main 726 687 __________P___ -1 8.84009 133.134 7 8 295
1913355N05141 1913 62 WP MM NOT_NAMED 1913-12-23 21:00:00 NR 9.02935 132.740 main 687 678 __________P___ -1 9.02935 132.740 7 9 296
1913355N05141 1913 62 WP MM NOT_NAMED 1913-12-23 22:00:00 NR 9.10000 132.600 main 678 649 __________O___ -1 9.10000 132.600 7 10 298
1913355N05141 1913 62 WP MM NOT_NAMED 1913-12-24 00:00:00 NR 9.26313 132.295 main 652 606 __________P___ -1 9.26313 132.295 7 11 299
1913355N05141 1913 62 WP MM NOT_NAMED 1913-12-24 03:00:00 NR 9.53311 131.807 main 606 560 __________P___ -1 9.53311 131.807 7 11 299
1913355N05141 1913 62 WP MM NOT_NAMED 1913-12-24 06:00:00 NR 9.81950 131.294 main 560 514 __________P___ -1 9.81950 131.294 7 12 299
1913355N05141 1913 62 WP MM NOT_NAMED 1913-12-24 09:00:00 NR 10.1067 130.773 main 514 495 __________P___ -1 10.1067 130.773 7 12 299
1913355N05141 1913 62 WP MM NOT_NAMED 1913-12-24 10:00:00 NR 10.2000 130.600 main 495 458 __________O___ -1 10.2000 130.600 7 12 297
1913355N05141 1913 62 WP MM NOT_NAMED 1913-12-24 12:00:00 NR 10.3750 130.246 main 458 414 __________P___ -1 10.3750 130.246 7 12 296
1913355N05141 1913 62 WP MM NOT_NAMED 1913-12-24 15:00:00 NR 10.6314 129.714 main 414 371 __________P___ -1 10.6314 129.714 7 11 296
1913355N05141 1913 62 WP MM NOT_NAMED 1913-12-24 18:00:00 NR 10.8802 129.204 main 371 316 __________P___ -1 10.8802 129.204 7 11 297
1913355N05141 1913 62 WP MM NOT_NAMED 1913-12-24 21:00:00 NR 11.1213 128.740 main 316 306 __________P___ -1 11.1213 128.740 7 10 298
1913355N05141 1913 62 WP MM NOT_NAMED 1913-12-24 22:00:00 NR 11.2000 128.600 main 306 285 __________O___ -1 11.2000 128.600 7 9 300
1913355N05141 1913 62 WP MM NOT_NAMED 1913-12-25 00:00:00 NR 11.3449 128.354 main 285 249 __________P___ -1 11.3449 128.354 7 8 303
1913355N05141 1913 62 WP MM NOT_NAMED 1913-12-25 03:00:00 NR 11.5559 128.036 main 249 231 __________P___ -1 11.5559 128.036 7 7 306
1913355N05141 1913 62 WP MM NOT_NAMED 1913-12-25 06:00:00 NR 11.7734 127.756 main 235 216 __________P___ -1 11.7734 127.756 7 7 311
1913355N05141 1913 62 WP MM NOT_NAMED 1913-12-25 09:00:00 NR 12.0127 127.490 main 216 206 __________P___ -1 12.0127 127.490 7 7 313
1913355N05141 1913 62 WP MM NOT_NAMED 1913-12-25 10:00:00 NR 12.1000 127.400 main 206 184 __________O___ -1 12.1000 127.400 7 8 312
1913355N05141 1913 62 WP MM NOT_NAMED 1913-12-25 12:00:00 NR 12.2913 127.179 main 185 148 __________P___ -1 12.2913 127.179 7 9 313
1913355N05141 1913 62 WP MM NOT_NAMED 1913-12-25 15:00:00 NR 12.6034 126.847 main 148 133 __________P___ -1 12.6034 126.847 7 9 316
1913355N05141 1913 62 WP MM NOT_NAMED 1913-12-25 18:00:00 NR 12.9372 126.537 main 133 140 __________P___ -1 12.9372 126.537 7 9 321
1913355N05141 1913 62 WP MM NOT_NAMED 1913-12-25 21:00:00 NR 13.2834 126.273 main 148 140 __________P___ -1 13.2834 126.273 7 9 325
1913355N05141 1913 62 WP MM NOT_NAMED 1913-12-25 22:00:00 NR 13.4000 126.200 main 148 148 __________O___ -1 13.4000 126.200 7 8 329
1913355N05141 1913 62 WP MM NOT_NAMED 1913-12-26 00:00:00 NR 13.6275 126.067 main 157 157 __________P___ -1 13.6275 126.067 7 8 335
1913355N05141 1913 62 WP MM NOT_NAMED 1913-12-26 03:00:00 NR 13.9751 125.917 main 162 154 __________P___ -1 13.9751 125.917 7 7 342
1913355N05141 1913 62 WP MM NOT_NAMED 1913-12-26 06:00:00 NR 14.3277 125.827 main 157 157 __________P___ -1 14.3277 125.827 7 7 351
1913355N05141 1913 62 WP MM NOT_NAMED 1913-12-26 09:00:00 NR 14.6821 125.797 main 175 175 __________P___ -1 14.6821 125.797 7 7 0
1913355N05141 1913 62 WP MM NOT_NAMED 1913-12-26 10:00:00 NR 14.8000 125.800 main 181 181 __________O___ -1 14.8000 125.800 7 7 356
1913355N05141 1913 62 WP MM NOT_NAMED 1913-12-26 12:00:00 NR 15.0122 125.795 main 194 194 __________P___ -1 15.0122 125.795 7 6 5
1913355N05141 1913 62 WP MM NOT_NAMED 1913-12-26 15:00:00 NR 15.3301 125.838 main 217 217 __________P___ -1 15.3301 125.838 7 7 12
1913355N05141 1913 62 WP MM NOT_NAMED 1913-12-26 18:00:00 NR 15.6698 125.945 main 256 263 __________P___ -1 15.6698 125.945 7 8 21
1913355N05141 1913 62 WP MM NOT_NAMED 1913-12-26 21:00:00 NR 16.0564 126.124 main 304 304 __________P___ -1 16.0564 126.124 7 9 25
1913355N05141 1913 62 WP MM NOT_NAMED 1913-12-26 22:00:00 NR 16.2000 126.200 main 319 319 __________O___ -1 16.2000 126.200 7 11 26
1913355N05141 1913 62 WP MM NOT_NAMED 1913-12-27 00:00:00 NR 16.5341 126.360 main 359 368 __________P___ -1 16.5341 126.360 7 12 27
1913355N05141 1913 62 WP MM NOT_NAMED 1913-12-27 03:00:00 NR 17.0859 126.664 main 431 431 __________P___ -1 17.0859 126.664 7 13 30
1913355N05141 1913 62 WP MM NOT_NAMED 1913-12-27 06:00:00 NR 17.6625 127.031 main 484 494 __________P___ -1 17.6625 127.031 7 14 33
1913355N05141 1913 62 WP MM NOT_NAMED 1913-12-27 09:00:00 NR 18.2235 127.451 main 546 548 __________P___ -1 18.2235 127.451 7 14 36
1913355N05141 1913 62 WP MM NOT_NAMED 1913-12-27 10:00:00 NR 18.4000 127.600 main 559 559 __________O___ -1 18.4000 127.600 7 13 41
1913355N05141 1913 62 WP MM NOT_NAMED 1913-12-27 12:00:00 NR 18.7312 127.909 main 591 591 __________P___ -1 18.7312 127.909 7 13 44
1913355N05141 1913 62 WP MM NOT_NAMED 1913-12-27 15:00:00 NR 19.1811 128.396 main 648 648 __________P___ -1 19.1811 128.396 7 13 48
1913355N05141 1913 62 WP MM NOT_NAMED 1913-12-27 18:00:00 NR 19.5899 128.904 main 706 706 __________P___ -1 19.5899 128.904 7 13 51
1913355N05141 1913 62 WP MM NOT_NAMED 1913-12-27 21:00:00 NR 19.9743 129.425 main 766 776 __________P___ -1 19.9743 129.425 7 12 52
1913355N05141 1913 62 WP MM NOT_NAMED 1913-12-27 22:00:00 NR 20.1000 129.600 main 789 __________O___ -1 20.1000 129.600 7 12 52

デジタル台風データ・検索

IBTrACS Databaseについて

本データベースは、米国NOAAが公開する1842年以降の世界の熱帯低気圧のベストトラックデータアーカイブInternational Best Track Archive for Climate Stewardship (IBTrACS)を、ウェブで閲覧しやすい形式に変換したものです。

最終更新日:2021-10-08